Time;durP1;ratioP1;P1;durP2;ratioP2;P2;SDS_P1;SDS_P2;PMS_P1;PMS_P2;Temp;Humidity;BMP_temperature;BMP_pressure;BME280_temperature;BME280_humidity;BME280_pressure;Samples;Min_cycle;Max_cycle;Signal;HPM_P1;HPM_P2
2022/01/18 00:01:27;;;;;;;7.78;5.65;;;;;;;;;;4840227;29;20530;-83
2022/01/18 00:03:55;;;;;;;6.60;6.03;;;;;;;;;;4857040;29;20049;-82
2022/01/18 00:06:23;;;;;;;5.43;4.90;;;;;;;;;;4853400;29;20053;-82
2022/01/18 00:08:52;;;;;;;6.35;5.63;;;;;;;;;;4841225;29;20053;-82
2022/01/18 00:11:23;;;;;;;5.75;4.38;;;;;;;;;;4851498;29;20982;-81
2022/01/18 00:13:58;;;;;;;6.20;5.70;;;;;;;;;;4843206;29;20077;-81
2022/01/18 00:16:30;;;;;;;8.50;5.93;;;;;;;;;;4834137;29;20064;-82
2022/01/18 00:19:01;;;;;;;;;;;;;;;;;;4848522;29;20056;-82
2022/01/18 00:21:36;;;;;;;6.68;4.63;;;;;;;;;;4852484;29;19932;-81
2022/01/18 00:24:06;;;;;;;9.68;6.70;;;;;;;;;;4844728;29;20065;-82
2022/01/18 00:26:35;;;;;;;6.68;5.60;;;;;;;;;;4834904;29;20050;-82
2022/01/18 00:29:10;;;;;;;7.72;6.68;;;;;;;;;;4841916;29;20057;-82
2022/01/18 00:34:29;;;;;;;8.82;7.28;;;;;;;;;;4853346;29;20073;-82
2022/01/18 00:39:36;;;;;;;9.00;6.43;;;;;;;;;;4856371;29;20372;-81
2022/01/18 00:42:05;;;;;;;7.80;5.25;;;;;;;;;;4834974;29;20064;-81
2022/01/18 00:44:32;;;;;;;9.15;7.03;;;;;;;;;;4833914;29;20428;-82
2022/01/18 00:47:01;;;;;;;7.60;5.50;;;;;;;;;;4834545;29;20060;-82
2022/01/18 00:49:31;;;;;;;7.68;6.45;;;;;;;;;;4841348;29;20061;-82
2022/01/18 00:52:04;;;;;;;10.23;8.18;;;;;;;;;;4852396;29;20068;-82
2022/01/18 00:54:43;;;;;;;8.75;5.97;;;;;;;;;;4851958;29;20053;-82
2022/01/18 00:57:11;;;;;;;9.25;6.25;;;;;;;;;;4850657;29;20057;-82
2022/01/18 00:59:41;;;;;;;11.45;8.40;;;;;;;;;;4851050;29;20053;-82
2022/01/18 01:02:15;;;;;;;8.05;5.32;;;;;;;;;;4852699;29;20076;-82
2022/01/18 01:04:48;;;;;;;8.32;5.68;;;;;;;;;;4863932;29;20614;-82
2022/01/18 01:07:21;;;;;;;9.90;7.35;;;;;;;;;;4861294;29;20054;-82
2022/01/18 01:09:49;;;;;;;14.77;9.52;;;;;;;;;;4833984;29;20563;-82
2022/01/18 01:12:19;;;;;;;10.48;8.90;;;;;;;;;;4833433;29;20057;-82
2022/01/18 01:14:50;;;;;;;10.73;7.18;;;;;;;;;;4850867;29;20057;-82
2022/01/18 01:17:46;;;;;;;8.85;7.95;;;;;;;;;;4849906;29;20045;-82
2022/01/18 01:44:48;;;;;;;8.73;7.78;;;;;;;;;;4852087;29;20061;-82
2022/01/18 01:47:19;;;;;;;8.48;5.55;;;;;;;;;;4837176;29;20065;-82
2022/01/18 01:49:50;;;;;;;10.20;8.10;;;;;;;;;;4833839;29;20050;-82
2022/01/18 01:52:21;;;;;;;10.52;7.07;;;;;;;;;;4833266;29;20076;-82
2022/01/18 01:54:49;;;;;;;12.33;11.10;;;;;;;;;;4832867;29;20682;-81
2022/01/18 01:57:17;;;;;;;8.57;5.95;;;;;;;;;;4844032;29;20057;-82
2022/01/18 01:59:45;;;;;;;10.68;8.43;;;;;;;;;;4867526;29;20056;-82
2022/01/18 02:02:15;;;;;;;8.20;6.47;;;;;;;;;;4850501;29;20064;-83
2022/01/18 02:04:43;;;;;;;10.98;7.47;;;;;;;;;;4839939;29;20065;-82
2022/01/18 02:07:12;;;;;;;10.98;6.88;;;;;;;;;;4844226;29;20813;-82
2022/01/18 02:09:41;;;;;;;12.52;7.60;;;;;;;;;;4850746;29;20066;-81
2022/01/18 02:12:10;;;;;;;10.82;8.15;;;;;;;;;;4854540;29;20057;-82
2022/01/18 02:14:40;;;;;;;9.35;7.53;;;;;;;;;;4850070;29;20054;-82
2022/01/18 02:22:42;;;;;;;11.15;8.18;;;;;;;;;;4855400;29;20484;-81
2022/01/18 02:25:10;;;;;;;11.73;7.25;;;;;;;;;;4852971;29;20061;-82
2022/01/18 02:27:38;;;;;;;11.20;8.32;;;;;;;;;;4853752;29;20069;-81
2022/01/18 02:30:06;;;;;;;10.55;8.13;;;;;;;;;;4855707;29;20068;-82
2022/01/18 02:32:34;;;;;;;9.27;6.82;;;;;;;;;;4854864;29;20049;-82
2022/01/18 02:35:03;;;;;;;13.55;9.23;;;;;;;;;;4853158;29;20456;-81
2022/01/18 02:37:31;;;;;;;15.80;10.68;;;;;;;;;;4839757;29;20437;-82
2022/01/18 02:40:00;;;;;;;7.40;6.15;;;;;;;;;;4861778;29;20056;-82
2022/01/18 02:42:40;;;;;;;8.10;7.13;;;;;;;;;;4851530;29;20056;-82
2022/01/18 02:45:11;;;;;;;11.82;8.60;;;;;;;;;;4853073;29;20053;-82
2022/01/18 02:47:40;;;;;;;10.40;7.03;;;;;;;;;;4854376;29;20078;-82
2022/01/18 02:50:25;;;;;;;12.40;8.00;;;;;;;;;;4844212;29;20053;-82
2022/01/18 02:54:00;;;;;;;11.13;7.03;;;;;;;;;;4852729;29;20091;-82
2022/01/18 02:57:13;;;;;;;11.93;8.98;;;;;;;;;;4844744;29;20064;-81
2022/01/18 03:00:42;;;;;;;13.85;7.70;;;;;;;;;;4836116;29;20054;-82
2022/01/18 03:03:13;;;;;;;10.68;7.63;;;;;;;;;;4845899;29;20242;-82
2022/01/18 03:05:42;;;;;;;16.70;9.90;;;;;;;;;;4857193;29;20064;-82
2022/01/18 03:08:10;;;;;;;11.98;7.45;;;;;;;;;;4859356;29;20065;-82
2022/01/18 03:10:41;;;;;;;12.05;9.50;;;;;;;;;;4845361;29;20825;-82
2022/01/18 03:13:10;;;;;;;10.63;9.10;;;;;;;;;;4844334;29;20066;-82
2022/01/18 03:15:40;;;;;;;12.97;8.73;;;;;;;;;;4852495;29;20060;-82
2022/01/18 03:18:08;;;;;;;13.13;8.60;;;;;;;;;;4853584;29;20049;-82
2022/01/18 03:20:36;;;;;;;13.38;9.35;;;;;;;;;;4854409;29;20053;-82
2022/01/18 03:23:09;;;;;;;11.85;7.05;;;;;;;;;;4853504;29;20057;-82
2022/01/18 03:25:52;;;;;;;12.85;9.40;;;;;;;;;;4851360;29;20381;-82
2022/01/18 03:28:21;;;;;;;11.25;8.75;;;;;;;;;;4848489;29;20062;-82
2022/01/18 03:30:53;;;;;;;10.60;8.15;;;;;;;;;;4852641;29;20574;-82
2022/01/18 03:33:23;;;;;;;18.20;10.18;;;;;;;;;;4853402;29;20042;-81
2022/01/18 03:35:52;;;;;;;12.13;6.57;;;;;;;;;;4853983;29;20054;-82
2022/01/18 03:38:21;;;;;;;10.70;7.45;;;;;;;;;;4849838;29;20053;-82
2022/01/18 03:40:49;;;;;;;13.00;9.30;;;;;;;;;;4870024;29;20053;-82
2022/01/18 03:43:18;;;;;;;17.77;10.40;;;;;;;;;;4861029;29;20523;-81
2022/01/18 03:45:46;;;;;;;12.38;7.60;;;;;;;;;;4854462;29;20762;-82
2022/01/18 03:48:23;;;;;;;10.85;8.38;;;;;;;;;;4853517;29;20053;-82
2022/01/18 03:50:51;;;;;;;16.20;8.90;;;;;;;;;;4853597;29;20413;-82
2022/01/18 03:53:20;;;;;;;12.85;7.90;;;;;;;;;;4851709;29;20076;-82
2022/01/18 03:55:49;;;;;;;13.93;9.77;;;;;;;;;;4853169;29;20057;-82
2022/01/18 03:58:17;;;;;;;12.32;8.13;;;;;;;;;;4852337;29;20891;-82
2022/01/18 04:00:46;;;;;;;13.57;7.32;;;;;;;;;;4848970;29;20060;-82
2022/01/18 04:03:18;;;;;;;13.43;8.63;;;;;;;;;;4852590;29;20064;-82
2022/01/18 04:05:46;;;;;;;15.13;10.80;;;;;;;;;;4848892;29;20478;-82
2022/01/18 04:08:15;;;;;;;11.85;8.85;;;;;;;;;;4853069;29;20062;-82
2022/01/18 04:10:43;;;;;;;10.15;7.72;;;;;;;;;;4853152;29;20091;-83
2022/01/18 04:13:11;;;;;;;13.23;8.77;;;;;;;;;;4852328;29;20527;-82
2022/01/18 04:15:40;;;;;;;13.57;9.57;;;;;;;;;;4852753;29;20403;-82
2022/01/18 04:28:54;;;;;;;12.80;11.13;;;;;;;;;;4851753;29;20049;-83
2022/01/18 04:31:23;;;;;;;12.35;9.20;;;;;;;;;;4852096;29;20053;-82
2022/01/18 04:33:52;;;;;;;15.40;11.18;;;;;;;;;;4853286;29;20045;-82
2022/01/18 04:36:20;;;;;;;15.73;10.73;;;;;;;;;;4849784;29;20057;-84
2022/01/18 04:38:48;;;;;;;13.63;7.93;;;;;;;;;;4850040;29;20065;-82
2022/01/18 04:41:19;;;;;;;15.80;9.77;;;;;;;;;;4846380;29;20057;-82
2022/01/18 04:44:04;;;;;;;16.20;9.88;;;;;;;;;;4850113;29;20516;-82
2022/01/18 04:49:20;;;;;;;11.50;8.48;;;;;;;;;;4839482;29;20060;-89
2022/01/18 04:51:48;;;;;;;14.45;9.82;;;;;;;;;;4831631;29;20049;-82
2022/01/18 04:54:17;;;;;;;10.52;8.00;;;;;;;;;;4854363;29;20077;-82
2022/01/18 04:59:13;;;;;;;14.13;9.95;;;;;;;;;;4843069;29;20060;-81
2022/01/18 05:01:43;;;;;;;16.45;12.52;;;;;;;;;;4842432;29;20049;-82
2022/01/18 05:04:11;;;;;;;16.08;10.52;;;;;;;;;;4840795;29;20411;-82
2022/01/18 05:06:42;;;;;;;16.25;10.25;;;;;;;;;;4852834;29;20487;-81
2022/01/18 05:09:11;;;;;;;20.53;12.73;;;;;;;;;;4851874;29;20088;-82
2022/01/18 05:12:05;;;;;;;20.25;12.75;;;;;;;;;;4851911;29;20629;-82
2022/01/18 05:14:35;;;;;;;16.10;8.32;;;;;;;;;;4846431;29;20065;-82
2022/01/18 05:20:35;;;;;;;14.77;9.73;;;;;;;;;;4843561;29;20472;-82
2022/01/18 05:22:59;;;;;;;20.00;12.27;;;;;;;;;;4833714;29;20077;-81
2022/01/18 05:25:29;;;;;;;15.88;11.68;;;;;;;;;;4841349;29;20060;-82
2022/01/18 05:27:58;;;;;;;18.00;10.18;;;;;;;;;;4849957;29;20060;-82
2022/01/18 05:30:27;;;;;;;16.23;12.05;;;;;;;;;;4851882;29;20061;-82
2022/01/18 05:32:55;;;;;;;19.02;12.32;;;;;;;;;;4852180;29;20061;-82
2022/01/18 05:35:24;;;;;;;14.02;11.27;;;;;;;;;;4851062;29;20049;-82
2022/01/18 05:37:55;;;;;;;17.15;11.55;;;;;;;;;;4850400;29;20053;-82
2022/01/18 05:40:23;;;;;;;15.63;12.48;;;;;;;;;;4864815;29;20045;-82
2022/01/18 05:42:51;;;;;;;16.63;11.32;;;;;;;;;;4855962;29;20080;-82
2022/01/18 05:45:20;;;;;;;23.75;13.23;;;;;;;;;;4854192;29;20048;-82
2022/01/18 05:47:49;;;;;;;15.98;12.27;;;;;;;;;;4845932;29;20050;-82
2022/01/18 05:50:18;;;;;;;14.88;9.75;;;;;;;;;;4837478;29;20061;-83
2022/01/18 05:52:46;;;;;;;13.00;10.23;;;;;;;;;;4843474;29;20054;-80
2022/01/18 05:55:14;;;;;;;13.43;11.80;;;;;;;;;;4846509;29;20150;-80
2022/01/18 05:57:42;;;;;;;17.08;11.73;;;;;;;;;;4843342;29;20480;-78
2022/01/18 06:00:19;;;;;;;16.80;11.88;;;;;;;;;;4859322;29;20415;-79
2022/01/18 06:02:59;;;;;;;13.95;8.57;;;;;;;;;;4855507;29;20505;-78
2022/01/18 06:08:18;;;;;;;14.98;9.50;;;;;;;;;;4854695;29;20061;-81
2022/01/18 06:10:46;;;;;;;17.83;10.98;;;;;;;;;;4855149;29;20057;-81
2022/01/18 06:13:14;;;;;;;13.15;10.68;;;;;;;;;;4853806;29;20061;-80
2022/01/18 06:15:42;;;;;;;14.30;10.95;;;;;;;;;;4853928;29;20053;-80
2022/01/18 06:18:14;;;;;;;12.02;9.48;;;;;;;;;;4849424;29;20054;-80
2022/01/18 06:20:43;;;;;;;14.18;9.95;;;;;;;;;;4854397;29;20385;-81
2022/01/18 06:23:13;;;;;;;14.63;9.65;;;;;;;;;;4853807;29;20050;-81
2022/01/18 06:25:42;;;;;;;17.23;8.73;;;;;;;;;;4854725;29;20061;-80
2022/01/18 06:28:10;;;;;;;25.98;10.63;;;;;;;;;;4849755;29;20069;-79
2022/01/18 06:30:38;;;;;;;21.27;11.57;;;;;;;;;;4853132;29;20567;-78
2022/01/18 06:33:06;;;;;;;12.73;8.60;;;;;;;;;;4853170;29;20057;-79
2022/01/18 06:35:34;;;;;;;20.77;12.60;;;;;;;;;;4847845;29;20050;-78
2022/01/18 06:38:03;;;;;;;14.27;9.07;;;;;;;;;;4848252;29;20058;-78
2022/01/18 06:40:31;;;;;;;15.52;11.70;;;;;;;;;;4854533;29;20060;-78
2022/01/18 06:42:59;;;;;;;12.00;8.43;;;;;;;;;;4854684;29;20569;-81
2022/01/18 06:45:28;;;;;;;8.82;6.95;;;;;;;;;;4854008;29;20054;-79
2022/01/18 06:47:57;;;;;;;13.30;8.95;;;;;;;;;;4854200;29;20064;-79
2022/01/18 06:50:25;;;;;;;15.82;11.05;;;;;;;;;;4839427;29;20053;-79
2022/01/18 06:52:54;;;;;;;12.05;7.70;;;;;;;;;;4834924;29;20054;-78
2022/01/18 06:55:22;;;;;;;13.07;9.55;;;;;;;;;;4847252;29;20061;-79
2022/01/18 06:57:50;;;;;;;12.07;9.20;;;;;;;;;;4853258;29;20053;-79
2022/01/18 07:00:18;;;;;;;10.68;8.63;;;;;;;;;;4854198;29;20684;-79
2022/01/18 07:02:46;;;;;;;12.82;8.55;;;;;;;;;;4868476;29;20132;-79
2022/01/18 07:05:16;;;;;;;19.00;9.93;;;;;;;;;;4853828;29;20041;-79
2022/01/18 07:07:47;;;;;;;13.90;8.68;;;;;;;;;;4851275;29;20042;-78
2022/01/18 07:10:16;;;;;;;15.82;11.35;;;;;;;;;;4844000;29;20475;-79
2022/01/18 07:12:44;;;;;;;14.93;8.23;;;;;;;;;;4845587;29;20053;-79
2022/01/18 07:15:14;;;;;;;14.93;8.40;;;;;;;;;;4848662;29;20050;-79
2022/01/18 07:17:42;;;;;;;14.30;9.23;;;;;;;;;;4854084;29;20049;-79
2022/01/18 07:20:10;;;;;;;12.77;8.80;;;;;;;;;;4853376;29;20053;-79
2022/01/18 07:22:42;;;;;;;14.68;8.10;;;;;;;;;;4853507;29;20053;-78
2022/01/18 07:25:12;;;;;;;13.00;8.40;;;;;;;;;;4853717;29;20508;-79
2022/01/18 07:27:40;;;;;;;18.13;9.25;;;;;;;;;;4852979;29;20080;-78
2022/01/18 07:30:08;;;;;;;12.73;6.35;;;;;;;;;;4853732;29;20049;-78
2022/01/18 07:32:36;;;;;;;14.75;9.00;;;;;;;;;;4853682;29;20045;-78
2022/01/18 07:35:05;;;;;;;12.57;8.05;;;;;;;;;;4853516;29;20057;-78
2022/01/18 07:37:33;;;;;;;16.23;9.23;;;;;;;;;;4848439;29;20054;-78
2022/01/18 07:40:01;;;;;;;15.20;8.35;;;;;;;;;;4856403;29;20495;-79
2022/01/18 07:42:29;;;;;;;11.35;8.05;;;;;;;;;;4850501;29;20391;-78
2022/01/18 07:44:57;;;;;;;12.77;8.10;;;;;;;;;;4850268;29;20525;-78
2022/01/18 07:47:25;;;;;;;12.68;8.70;;;;;;;;;;4853172;29;20053;-78
2022/01/18 07:49:53;;;;;;;12.50;8.57;;;;;;;;;;4853659;29;20404;-79
2022/01/18 07:52:21;;;;;;;14.60;8.35;;;;;;;;;;4852947;29;20053;-78
2022/01/18 07:54:49;;;;;;;11.85;8.70;;;;;;;;;;4849814;29;20049;-79
2022/01/18 07:57:19;;;;;;;10.95;8.50;;;;;;;;;;4851763;29;20060;-78
2022/01/18 07:59:47;;;;;;;13.00;6.97;;;;;;;;;;4860731;29;20500;-78
2022/01/18 08:02:16;;;;;;;12.77;8.48;;;;;;;;;;4853165;29;20068;-78
2022/01/18 08:04:46;;;;;;;19.25;10.30;;;;;;;;;;4853537;29;20049;-78
2022/01/18 08:07:15;;;;;;;12.52;8.98;;;;;;;;;;4846222;29;20061;-78
2022/01/18 08:09:44;;;;;;;22.13;12.20;;;;;;;;;;4853080;29;20065;-78
2022/01/18 08:12:13;;;;;;;14.45;10.85;;;;;;;;;;4851201;29;20384;-78
2022/01/18 08:14:46;;;;;;;12.85;8.38;;;;;;;;;;4853100;29;20522;-78
2022/01/18 08:17:15;;;;;;;;;;;;;;;;;;4853433;29;20049;-78
2022/01/18 08:19:45;;;;;;;14.30;11.23;;;;;;;;;;4852794;29;19928;-78
2022/01/18 08:22:15;;;;;;;16.27;9.98;;;;;;;;;;4851390;29;20061;-78
2022/01/18 08:24:44;;;;;;;16.00;10.02;;;;;;;;;;4852570;29;20547;-78
2022/01/18 08:27:15;;;;;;;21.02;10.32;;;;;;;;;;4852457;29;20521;-78
2022/01/18 08:29:47;;;;;;;13.10;9.05;;;;;;;;;;4851663;29;20046;-78
2022/01/18 08:32:17;;;;;;;17.00;12.77;;;;;;;;;;4852581;29;20045;-78
2022/01/18 08:34:46;;;;;;;16.33;10.88;;;;;;;;;;4869662;29;20060;-78
2022/01/18 08:37:15;;;;;;;12.75;11.43;;;;;;;;;;4871026;29;20056;-78
2022/01/18 08:39:43;;;;;;;15.68;9.13;;;;;;;;;;4871072;29;20063;-78
2022/01/18 08:42:13;;;;;;;13.90;9.32;;;;;;;;;;4856686;29;20383;-78
2022/01/18 08:44:43;;;;;;;15.23;9.20;;;;;;;;;;4851010;29;20053;-79
2022/01/18 08:47:12;;;;;;;;;;;;;;;;;;4851967;29;20038;-78
2022/01/18 08:49:41;;;;;;;30.20;9.68;;;;;;;;;;4860851;29;19927;-79
2022/01/18 08:52:09;;;;;;;14.52;10.07;;;;;;;;;;4870885;29;20048;-78
2022/01/18 08:54:39;;;;;;;9.80;8.20;;;;;;;;;;4846798;29;20054;-79
2022/01/18 08:57:08;;;;;;;13.05;9.18;;;;;;;;;;4850388;29;20049;-78
2022/01/18 08:59:36;;;;;;;13.70;9.80;;;;;;;;;;4855703;29;20061;-79
2022/01/18 09:02:05;;;;;;;13.20;9.18;;;;;;;;;;4852926;29;20073;-79
2022/01/18 09:04:34;;;;;;;21.23;10.63;;;;;;;;;;4862959;29;20053;-79
2022/01/18 09:07:09;;;;;;;20.98;10.23;;;;;;;;;;4843992;29;20057;-79
2022/01/18 09:09:39;;;;;;;11.35;7.72;;;;;;;;;;4852368;29;20057;-79
2022/01/18 09:12:08;;;;;;;20.77;8.40;;;;;;;;;;4851799;29;20050;-79
2022/01/18 09:14:37;;;;;;;14.00;8.60;;;;;;;;;;4846485;29;20057;-79
2022/01/18 09:17:05;;;;;;;16.85;13.02;;;;;;;;;;4849317;29;20508;-79
2022/01/18 09:19:35;;;;;;;13.55;10.10;;;;;;;;;;4850750;29;20064;-80
2022/01/18 09:22:03;;;;;;;11.65;8.43;;;;;;;;;;4850658;29;20057;-79
2022/01/18 09:24:32;;;;;;;11.57;7.95;;;;;;;;;;4851225;29;20057;-79
2022/01/18 09:27:01;;;;;;;14.80;7.63;;;;;;;;;;4850225;29;20053;-79
2022/01/18 09:29:30;;;;;;;12.02;7.88;;;;;;;;;;4852344;29;20053;-79
2022/01/18 09:31:58;;;;;;;26.30;12.55;;;;;;;;;;4853268;29;20049;-79
2022/01/18 09:34:26;;;;;;;14.65;9.88;;;;;;;;;;4852270;29;20049;-79
2022/01/18 09:36:55;;;;;;;18.95;7.13;;;;;;;;;;4851609;29;20127;-79
2022/01/18 09:39:23;;;;;;;10.40;7.60;;;;;;;;;;4855334;29;20049;-79
2022/01/18 09:41:52;;;;;;;13.55;7.68;;;;;;;;;;4857048;29;20050;-79
2022/01/18 09:44:20;;;;;;;15.60;9.23;;;;;;;;;;4850763;29;20542;-79
2022/01/18 09:46:51;;;;;;;12.93;9.38;;;;;;;;;;4850994;29;20384;-79
2022/01/18 09:49:19;;;;;;;14.88;8.77;;;;;;;;;;4851648;29;20049;-79
2022/01/18 09:51:48;;;;;;;12.68;9.57;;;;;;;;;;4835444;29;20405;-79
2022/01/18 09:54:16;;;;;;;19.02;7.60;;;;;;;;;;4865856;29;20052;-79
2022/01/18 09:56:46;;;;;;;16.92;10.82;;;;;;;;;;4863356;29;20041;-79
2022/01/18 09:59:14;;;;;;;11.43;6.20;;;;;;;;;;4838500;29;20077;-79
2022/01/18 10:01:42;;;;;;;11.45;7.25;;;;;;;;;;4859141;29;20648;-82
2022/01/18 10:04:17;;;;;;;16.40;8.02;;;;;;;;;;4864136;29;20636;-82
2022/01/18 10:06:53;;;;;;;11.85;8.43;;;;;;;;;;4848796;29;20054;-79
2022/01/18 10:09:22;;;;;;;9.20;7.47;;;;;;;;;;4859338;29;20048;-81
2022/01/18 10:12:00;;;;;;;13.82;7.53;;;;;;;;;;4863163;29;20053;-80
2022/01/18 10:14:32;;;;;;;9.57;5.60;;;;;;;;;;4851300;29;20499;-81
2022/01/18 10:17:06;;;;;;;11.65;6.07;;;;;;;;;;4851279;29;20041;-77
2022/01/18 10:19:43;;;;;;;11.77;5.82;;;;;;;;;;4849564;29;20057;-79
2022/01/18 10:22:17;;;;;;;6.28;5.13;;;;;;;;;;4846351;29;20060;-79
2022/01/18 10:24:45;;;;;;;7.43;6.72;;;;;;;;;;4833264;29;20052;-77
2022/01/18 10:27:14;;;;;;;31.20;8.75;;;;;;;;;;4849887;29;20057;-79
2022/01/18 10:29:47;;;;;;;11.73;5.78;;;;;;;;;;4854062;29;20057;-78
2022/01/18 10:32:20;;;;;;;9.23;5.75;;;;;;;;;;4853047;29;20485;-78
2022/01/18 10:37:25;;;;;;;10.38;5.97;;;;;;;;;;4846506;29;20048;-79
2022/01/18 10:39:54;;;;;;;13.73;6.50;;;;;;;;;;4847379;29;20049;-78
2022/01/18 10:42:39;;;;;;;8.00;6.10;;;;;;;;;;4868629;29;20061;-78
2022/01/18 10:45:12;;;;;;;10.55;5.88;;;;;;;;;;4854741;29;20042;-79
2022/01/18 10:47:57;;;;;;;12.07;8.85;;;;;;;;;;4852888;29;20060;-79
2022/01/18 10:50:27;;;;;;;11.57;6.88;;;;;;;;;;4838304;29;20061;-79
2022/01/18 10:53:15;;;;;;;13.50;6.65;;;;;;;;;;4854107;29;20045;-79
2022/01/18 10:55:45;;;;;;;8.35;5.15;;;;;;;;;;4854368;29;20053;-79
2022/01/18 10:58:18;;;;;;;8.38;4.25;;;;;;;;;;4856866;29;20041;-78
2022/01/18 11:00:47;;;;;;;14.35;6.05;;;;;;;;;;4854797;29;20049;-79
2022/01/18 11:03:16;;;;;;;13.65;8.63;;;;;;;;;;4854378;29;20404;-79
2022/01/18 11:05:46;;;;;;;7.28;5.30;;;;;;;;;;4861560;29;20053;-79
2022/01/18 11:08:18;;;;;;;10.18;6.93;;;;;;;;;;4853399;29;20053;-79
2022/01/18 11:10:53;;;;;;;11.02;6.30;;;;;;;;;;4854569;29;20053;-79
2022/01/18 11:14:50;;;;;;;8.60;6.63;;;;;;;;;;4816343;29;20174;-78
2022/01/18 11:17:24;;;;;;;7.32;5.50;;;;;;;;;;4834937;29;20089;-79
2022/01/18 11:19:56;;;;;;;9.43;8.18;;;;;;;;;;4850815;29;20416;-80
2022/01/18 11:22:25;;;;;;;11.50;7.53;;;;;;;;;;4865313;29;20056;-80
2022/01/18 11:24:58;;;;;;;15.80;5.95;;;;;;;;;;4855252;29;20045;-80
2022/01/18 11:27:28;;;;;;;11.57;8.30;;;;;;;;;;4823595;29;20543;-79
2022/01/18 11:29:57;;;;;;;12.37;5.23;;;;;;;;;;4850884;29;20053;-83
2022/01/18 11:32:27;;;;;;;9.15;5.00;;;;;;;;;;4831680;29;20057;-83
2022/01/18 11:34:58;;;;;;;15.00;4.07;;;;;;;;;;4837318;29;20065;-82
2022/01/18 11:37:31;;;;;;;9.77;5.78;;;;;;;;;;4845332;29;20061;-84
2022/01/18 11:40:02;;;;;;;6.50;3.30;;;;;;;;;;4850588;29;20057;-83
2022/01/18 11:42:50;;;;;;;16.52;4.80;;;;;;;;;;4846543;29;20515;-83
2022/01/18 11:45:24;;;;;;;9.18;6.70;;;;;;;;;;4831369;29;21434;-83
2022/01/18 11:47:59;;;;;;;8.60;2.85;;;;;;;;;;4852677;29;20046;-83
2022/01/18 11:50:29;;;;;;;8.02;4.10;;;;;;;;;;4866946;29;20049;-83
2022/01/18 11:53:22;;;;;;;4.82;2.88;;;;;;;;;;4833449;29;20042;-82
2022/01/18 11:55:51;;;;;;;5.55;5.05;;;;;;;;;;4818625;29;20050;-83
2022/01/18 11:58:21;;;;;;;7.20;2.90;;;;;;;;;;4856187;29;20913;-83
2022/01/18 12:00:57;;;;;;;11.82;3.45;;;;;;;;;;4853202;29;20050;-83
2022/01/18 12:03:27;;;;;;;6.90;3.15;;;;;;;;;;4850260;29;20061;-83
2022/01/18 12:06:00;;;;;;;11.25;4.53;;;;;;;;;;4865911;29;20045;-82
2022/01/18 12:08:33;;;;;;;9.95;4.15;;;;;;;;;;4840921;29;20057;-82
2022/01/18 12:11:04;;;;;;;8.73;3.58;;;;;;;;;;4867710;29;20060;-83
2022/01/18 12:13:41;;;;;;;6.03;4.07;;;;;;;;;;4841156;29;20049;-82
2022/01/18 12:16:21;;;;;;;3.38;2.60;;;;;;;;;;4853124;29;20605;-83
2022/01/18 12:18:55;;;;;;;12.77;4.55;;;;;;;;;;4844387;29;20045;-83
2022/01/18 12:21:26;;;;;;;9.23;3.65;;;;;;;;;;4858537;29;20045;-83
2022/01/18 12:23:56;;;;;;;4.18;3.08;;;;;;;;;;4861034;29;20083;-83
2022/01/18 12:26:46;;;;;;;8.15;2.88;;;;;;;;;;4848751;29;20070;-86
2022/01/18 12:29:46;;;;;;;5.40;2.65;;;;;;;;;;4853881;29;20062;-82
2022/01/18 12:32:39;;;;;;;6.30;2.85;;;;;;;;;;4851146;29;20475;-82
2022/01/18 12:35:18;;;;;;;4.90;2.63;;;;;;;;;;4864889;29;20065;-83
2022/01/18 12:37:48;;;;;;;3.95;3.30;;;;;;;;;;4856821;29;20050;-82
2022/01/18 12:40:23;;;;;;;12.57;2.58;;;;;;;;;;4862160;29;20399;-81
2022/01/18 12:45:33;;;;;;;6.88;3.97;;;;;;;;;;4872148;29;20042;-82
2022/01/18 12:48:03;;;;;;;3.67;3.05;;;;;;;;;;4855529;29;20056;-81
2022/01/18 12:50:33;;;;;;;6.93;4.72;;;;;;;;;;4845273;29;20057;-82
2022/01/18 12:53:05;;;;;;;2.30;2.10;;;;;;;;;;4845809;29;20056;-82
2022/01/18 12:55:36;;;;;;;5.10;4.55;;;;;;;;;;4841806;29;20057;-81
2022/01/18 12:58:08;;;;;;;4.40;3.22;;;;;;;;;;4864244;29;20049;-83
2022/01/18 13:00:37;;;;;;;6.72;3.63;;;;;;;;;;4864758;29;20420;-84
2022/01/18 13:03:06;;;;;;;5.38;3.63;;;;;;;;;;4857859;29;20045;-83
2022/01/18 13:05:41;;;;;;;7.80;4.13;;;;;;;;;;4852957;29;20064;-82
2022/01/18 13:08:14;;;;;;;9.50;5.97;;;;;;;;;;4855781;29;20050;-82
2022/01/18 13:10:45;;;;;;;6.75;5.82;;;;;;;;;;4850582;29;20103;-82
2022/01/18 13:13:15;;;;;;;6.20;3.55;;;;;;;;;;4855086;29;20052;-82
2022/01/18 13:24:30;;;;;;;3.88;2.88;;;;;;;;;;4852267;29;20049;-81
2022/01/18 13:27:01;;;;;;;3.63;3.33;;;;;;;;;;4861391;29;20049;-82
2022/01/18 13:29:31;;;;;;;4.32;2.88;;;;;;;;;;4852517;29;20061;-83
2022/01/18 13:32:01;;;;;;;11.27;4.28;;;;;;;;;;4842643;29;20050;-82
2022/01/18 13:34:31;;;;;;;3.00;2.80;;;;;;;;;;4844309;29;20711;-82
2022/01/18 13:37:02;;;;;;;7.90;2.97;;;;;;;;;;4843668;29;20049;-81
2022/01/18 13:39:32;;;;;;;8.93;3.40;;;;;;;;;;4846694;29;20061;-82
2022/01/18 13:42:01;;;;;;;3.65;2.70;;;;;;;;;;4854544;29;20049;-83
2022/01/18 13:44:30;;;;;;;4.45;2.38;;;;;;;;;;4864426;29;20056;-83
2022/01/18 13:47:18;;;;;;;3.97;1.95;;;;;;;;;;4836566;29;20057;-83
2022/01/18 13:49:47;;;;;;;3.63;1.95;;;;;;;;;;4861318;29;20498;-82
2022/01/18 13:52:16;;;;;;;3.15;2.50;;;;;;;;;;4884096;29;20088;-82
2022/01/18 13:54:44;;;;;;;2.47;2.35;;;;;;;;;;4869451;29;20060;-82
2022/01/18 13:57:15;;;;;;;3.97;2.80;;;;;;;;;;4870078;29;20060;-82
2022/01/18 13:59:44;;;;;;;2.40;2.00;;;;;;;;;;4853795;29;20053;-81
2022/01/18 14:02:16;;;;;;;2.38;2.17;;;;;;;;;;4852767;29;20064;-81
2022/01/18 14:04:46;;;;;;;3.47;3.17;;;;;;;;;;4855776;29;20048;-82
2022/01/18 14:07:14;;;;;;;4.28;3.35;;;;;;;;;;4854919;29;20510;-82
2022/01/18 14:09:42;;;;;;;5.18;2.38;;;;;;;;;;4855408;29;20084;-83
2022/01/18 14:12:17;;;;;;;3.03;2.70;;;;;;;;;;4853786;29;20053;-82
2022/01/18 14:14:47;;;;;;;2.50;2.30;;;;;;;;;;4853588;29;20065;-83
2022/01/18 14:17:21;;;;;;;3.88;3.67;;;;;;;;;;4861267;29;20053;-82
2022/01/18 14:20:00;;;;;;;6.75;2.47;;;;;;;;;;4851423;29;20042;-82
2022/01/18 14:22:28;;;;;;;6.65;2.65;;;;;;;;;;4854923;29;20053;-82
2022/01/18 14:24:59;;;;;;;5.50;2.13;;;;;;;;;;4855052;29;20053;-83
2022/01/18 14:27:28;;;;;;;8.43;3.58;;;;;;;;;;4853037;29;20057;-83
2022/01/18 14:29:57;;;;;;;21.38;4.65;;;;;;;;;;4854114;29;20057;-82
2022/01/18 14:32:27;;;;;;;5.18;2.78;;;;;;;;;;4838534;29;20053;-84
2022/01/18 14:34:57;;;;;;;6.07;3.35;;;;;;;;;;4855261;29;20053;-83
2022/01/18 14:37:54;;;;;;;3.45;2.67;;;;;;;;;;4854500;29;20053;-83
2022/01/18 14:40:24;;;;;;;5.32;2.92;;;;;;;;;;4838152;29;20048;-83
2022/01/18 14:43:10;;;;;;;2.30;2.10;;;;;;;;;;4862259;29;20041;-82
2022/01/18 14:46:00;;;;;;;2.17;1.98;;;;;;;;;;4889306;29;20056;-84
2022/01/18 14:48:35;;;;;;;4.00;2.08;;;;;;;;;;4861050;29;20064;-83
2022/01/18 14:51:04;;;;;;;4.95;1.80;;;;;;;;;;4843833;29;20056;-82
2022/01/18 14:53:35;;;;;;;10.93;3.45;;;;;;;;;;4861724;29;20064;-83
2022/01/18 14:56:05;;;;;;;3.40;2.10;;;;;;;;;;4855026;29;20050;-83
2022/01/18 14:58:35;;;;;;;6.17;3.40;;;;;;;;;;4866318;29;20060;-83
2022/01/18 15:01:05;;;;;;;4.63;1.83;;;;;;;;;;4837343;29;20058;-84
2022/01/18 15:03:34;;;;;;;1.98;1.88;;;;;;;;;;4841321;29;20045;-83
2022/01/18 15:06:02;;;;;;;3.15;2.95;;;;;;;;;;4852770;29;20480;-82
2022/01/18 15:08:30;;;;;;;3.95;1.92;;;;;;;;;;4850074;29;20057;-83
2022/01/18 15:10:58;;;;;;;5.30;3.85;;;;;;;;;;4859961;29;20049;-80
2022/01/18 15:13:26;;;;;;;2.78;2.63;;;;;;;;;;4867441;29;20049;-79
2022/01/18 15:15:55;;;;;;;2.53;2.42;;;;;;;;;;4852236;29;20057;-79
2022/01/18 15:18:25;;;;;;;2.60;2.35;;;;;;;;;;4842608;29;20058;-80
2022/01/18 15:20:53;;;;;;;4.95;2.22;;;;;;;;;;4865758;29;20054;-81
2022/01/18 15:23:21;;;;;;;5.05;3.40;;;;;;;;;;4852031;29;20057;-81
2022/01/18 15:25:54;;;;;;;5.20;2.17;;;;;;;;;;4861892;29;20049;-79
2022/01/18 15:28:22;;;;;;;3.83;2.13;;;;;;;;;;4851523;29;20467;-81
2022/01/18 15:30:50;;;;;;;1.88;1.77;;;;;;;;;;4862301;29;20506;-79
2022/01/18 15:33:19;;;;;;;6.32;2.30;;;;;;;;;;4867838;29;20052;-80
2022/01/18 15:35:51;;;;;;;2.97;2.35;;;;;;;;;;4866738;29;20047;-80
2022/01/18 15:38:20;;;;;;;2.13;1.92;;;;;;;;;;4862853;29;20045;-80
2022/01/18 15:40:48;;;;;;;4.55;2.47;;;;;;;;;;4833481;29;20065;-80
2022/01/18 15:43:16;;;;;;;7.88;2.95;;;;;;;;;;4837410;29;20054;-83
2022/01/18 15:45:47;;;;;;;2.88;2.03;;;;;;;;;;4841287;29;20046;-80
2022/01/18 15:48:15;;;;;;;2.58;2.38;;;;;;;;;;4853256;29;20080;-79
2022/01/18 15:50:45;;;;;;;4.05;3.35;;;;;;;;;;4846284;29;20085;-79
2022/01/18 15:53:14;;;;;;;12.40;2.38;;;;;;;;;;4857126;29;20507;-79
2022/01/18 15:55:44;;;;;;;5.70;2.50;;;;;;;;;;4853654;29;20053;-79
2022/01/18 15:58:12;;;;;;;7.97;3.55;;;;;;;;;;4855454;29;20474;-80
2022/01/18 16:00:42;;;;;;;5.00;3.55;;;;;;;;;;4871551;29;20523;-79
2022/01/18 16:03:11;;;;;;;2.88;2.50;;;;;;;;;;4872032;29;20053;-79
2022/01/18 16:05:39;;;;;;;4.00;3.25;;;;;;;;;;4861400;29;20060;-79
2022/01/18 16:08:07;;;;;;;2.90;2.70;;;;;;;;;;4844817;29;20058;-80
2022/01/18 16:10:35;;;;;;;8.13;2.67;;;;;;;;;;4839916;29;20062;-79